createdAt,value
2022-10-04T00:04:34.652Z,15.65
2022-10-04T00:09:59.928Z,12.10
2022-10-04T00:15:33.934Z,12.98
2022-10-04T00:20:59.662Z,11.68
2022-10-04T00:26:23.988Z,14.47
2022-10-04T00:32:10.267Z,14.02
2022-10-04T00:37:55.673Z,15.10
2022-10-04T00:43:38.925Z,11.68
2022-10-04T00:49:08.539Z,16.48
2022-10-04T00:54:41.381Z,19.23
2022-10-04T01:00:11.140Z,15.02
2022-10-04T01:05:37.778Z,14.15
2022-10-04T01:11:04.747Z,14.30
2022-10-04T01:16:29.408Z,11.87
2022-10-04T01:22:13.939Z,12.02
2022-10-04T01:27:41.152Z,14.20
2022-10-04T01:33:03.428Z,13.37
2022-10-04T01:38:25.233Z,15.47
2022-10-04T01:43:54.478Z,15.87
2022-10-04T01:49:19.966Z,15.07
2022-10-04T01:54:46.485Z,16.90
2022-10-04T02:00:12.306Z,15.20
2022-10-04T02:05:38.713Z,11.17
2022-10-04T02:11:03.289Z,13.90
2022-10-04T02:16:26.401Z,16.38
2022-10-04T02:21:49.580Z,13.30
2022-10-04T02:27:12.138Z,10.33
2022-10-04T02:32:53.453Z,14.20
2022-10-04T02:38:22.153Z,13.47
2022-10-04T02:43:52.943Z,12.97
2022-10-04T02:49:21.790Z,15.63
2022-10-04T02:54:48.912Z,17.33
2022-10-04T03:00:16.658Z,12.07
2022-10-04T03:05:40.464Z,11.80
2022-10-04T03:11:04.337Z,12.37
2022-10-04T03:16:26.508Z,11.23
2022-10-04T03:21:51.555Z,11.03
2022-10-04T03:27:33.904Z,13.43
2022-10-04T03:32:56.209Z,12.13
2022-10-04T03:38:18.547Z,13.17
2022-10-04T03:43:50.260Z,9.97
2022-10-04T03:49:31.626Z,11.20
2022-10-04T03:54:56.621Z,9.50
2022-10-04T04:00:19.430Z,10.07
2022-10-04T04:05:50.068Z,10.53
2022-10-04T04:11:21.474Z,11.30
2022-10-04T04:16:43.536Z,12.23
2022-10-04T04:22:05.373Z,9.93
2022-10-04T04:27:29.857Z,15.60
2022-10-04T04:32:56.481Z,11.57
2022-10-04T04:38:22.354Z,10.00
2022-10-04T04:43:44.903Z,8.87
2022-10-04T04:49:06.766Z,11.90
2022-10-04T04:54:28.591Z,10.10
2022-10-04T04:59:55.844Z,15.27
2022-10-04T05:05:28.538Z,10.37
2022-10-04T05:11:16.007Z,11.13
2022-10-04T05:16:43.422Z,11.03
2022-10-04T05:22:14.478Z,9.97
2022-10-04T05:27:39.596Z,10.17
2022-10-04T05:33:05.172Z,11.20
2022-10-04T05:38:40.110Z,11.90
2022-10-04T05:44:02.469Z,9.03
2022-10-04T05:49:28.500Z,8.83
2022-10-04T05:55:16.031Z,12.33
2022-10-04T06:00:51.985Z,11.53
2022-10-04T06:06:22.849Z,13.40
2022-10-04T06:12:07.755Z,12.63
2022-10-04T06:17:54.388Z,16.07
2022-10-04T06:23:18.515Z,11.37
2022-10-04T06:28:47.986Z,13.13
2022-10-04T06:34:22.854Z,16.15
2022-10-04T06:39:56.281Z,14.60
2022-10-04T06:45:36.048Z,14.63
2022-10-04T06:51:16.894Z,18.17
2022-10-04T06:57:01.634Z,11.27
2022-10-04T07:02:34.276Z,12.13
2022-10-04T07:08:36.793Z,12.00
2022-10-04T07:14:13.443Z,8.50
2022-10-04T07:19:40.002Z,12.13
2022-10-04T07:25:24.292Z,12.97
2022-10-04T07:30:55.870Z,9.93
2022-10-04T07:36:24.620Z,12.10
2022-10-04T07:41:55.070Z,8.40
2022-10-04T07:47:29.879Z,9.68
2022-10-04T07:53:09.157Z,10.15
2022-10-04T07:58:43.299Z,6.70
2022-10-04T08:04:32.544Z,7.47
2022-10-04T08:10:25.734Z,9.60
2022-10-04T08:15:47.840Z,6.65
2022-10-04T08:21:16.874Z,7.75
2022-10-04T08:27:20.722Z,8.43
2022-10-04T08:33:06.298Z,7.67
2022-10-04T08:38:57.028Z,12.40
2022-10-04T08:44:46.836Z,11.50
2022-10-04T08:50:39.419Z,12.80
2022-10-04T08:56:27.009Z,9.80
2022-10-04T09:02:35.339Z,11.23
2022-10-04T09:08:04.348Z,9.27
2022-10-04T09:13:47.927Z,11.07
2022-10-04T09:19:46.501Z,11.00
2022-10-04T09:25:32.477Z,10.68
2022-10-04T09:31:06.512Z,12.52
2022-10-04T09:36:41.339Z,9.38
2022-10-04T09:42:34.238Z,10.98
2022-10-04T09:48:25.082Z,12.73
2022-10-04T09:54:04.352Z,11.25
2022-10-04T09:59:37.610Z,7.88
2022-10-04T10:05:16.764Z,9.50
2022-10-04T10:11:03.304Z,10.45
2022-10-04T10:16:33.970Z,14.93
2022-10-04T10:22:31.069Z,13.80
2022-10-04T10:28:02.891Z,9.05
2022-10-04T10:34:13.214Z,7.57
2022-10-04T10:39:49.286Z,11.60
2022-10-04T10:45:29.693Z,7.47
2022-10-04T10:51:03.472Z,4.68
2022-10-04T10:56:42.415Z,5.75
2022-10-04T11:02:52.052Z,11.07
2022-10-04T11:08:27.709Z,6.80
2022-10-04T11:14:20.224Z,7.78
2022-10-04T11:19:50.941Z,6.32
2022-10-04T11:25:25.091Z,9.02
2022-10-04T11:31:11.353Z,9.77
2022-10-04T11:36:45.693Z,10.07
2022-10-04T11:42:30.198Z,6.13
2022-10-04T11:48:11.279Z,8.63
2022-10-04T11:54:04.091Z,6.72
2022-10-04T11:59:45.371Z,6.55
2022-10-04T12:05:26.689Z,9.30
2022-10-04T12:11:53.903Z,7.47
2022-10-04T12:17:15.798Z,8.02
2022-10-04T12:22:42.865Z,5.93
2022-10-04T12:28:20.350Z,7.68
2022-10-04T12:33:53.957Z,5.65
2022-10-04T12:39:52.937Z,5.00
2022-10-04T12:45:27.636Z,4.80
2022-10-04T12:51:00.205Z,3.85
2022-10-04T12:56:47.260Z,6.50
2022-10-04T13:02:21.843Z,7.60
2022-10-04T13:07:55.783Z,6.97
2022-10-04T13:13:23.736Z,7.10
2022-10-04T13:18:56.765Z,4.97
2022-10-04T13:24:55.535Z,4.15
2022-10-04T13:30:36.981Z,6.40
2022-10-04T13:36:12.053Z,3.40
2022-10-04T13:41:51.566Z,7.20
2022-10-04T13:47:42.330Z,7.20
2022-10-04T13:53:25.356Z,4.78
2022-10-04T13:58:57.712Z,6.53
2022-10-04T14:04:34.701Z,5.47
2022-10-04T14:10:27.681Z,3.42
2022-10-04T14:16:08.242Z,6.53
2022-10-04T14:21:52.214Z,6.88
2022-10-04T14:27:32.792Z,6.93
2022-10-04T14:33:25.979Z,6.15
2022-10-04T14:39:06.185Z,8.55
2022-10-04T14:44:45.046Z,4.63
2022-10-04T14:50:21.776Z,6.53
2022-10-04T14:55:57.571Z,6.50
2022-10-04T15:01:25.215Z,8.75
2022-10-04T15:07:04.308Z,5.68
2022-10-04T15:12:58.558Z,5.03
2022-10-04T15:18:38.986Z,5.40
2022-10-04T15:24:24.161Z,4.68
2022-10-04T15:30:18.313Z,4.38
2022-10-04T15:36:13.544Z,5.88
2022-10-04T15:41:56.680Z,5.75
2022-10-04T15:47:53.613Z,7.32
2022-10-04T15:53:40.247Z,12.07
2022-10-04T15:59:30.571Z,8.70
2022-10-04T16:05:19.009Z,5.93
2022-10-04T16:11:14.430Z,4.07
2022-10-04T16:16:39.769Z,4.95
2022-10-04T16:22:29.085Z,6.22
2022-10-04T16:28:05.845Z,23.67
2022-10-04T16:33:42.876Z,6.25
2022-10-04T16:39:24.069Z,4.78
2022-10-04T16:44:54.838Z,5.38
2022-10-04T16:50:54.475Z,6.72
2022-10-04T16:56:20.348Z,4.25
2022-10-04T17:02:03.398Z,7.00
2022-10-04T17:07:37.179Z,6.32
2022-10-04T17:13:50.765Z,7.43
2022-10-04T17:19:32.532Z,5.13
2022-10-04T17:25:03.272Z,6.93
2022-10-04T17:30:27.943Z,4.82
2022-10-04T17:36:18.385Z,8.00
2022-10-04T17:42:08.798Z,7.25
2022-10-04T17:48:04.231Z,6.72
2022-10-04T17:53:48.666Z,9.07
2022-10-04T17:59:15.947Z,4.95
2022-10-04T18:04:59.961Z,6.20
2022-10-04T18:10:50.488Z,6.15
2022-10-04T18:16:24.327Z,4.22
2022-10-04T18:21:52.445Z,3.05
2022-10-04T18:27:25.196Z,5.68
2022-10-04T18:32:57.391Z,6.57
2022-10-04T18:38:26.938Z,4.30
2022-10-04T18:43:57.906Z,6.32
2022-10-04T18:49:24.535Z,9.18
2022-10-04T18:55:02.561Z,10.88
2022-10-04T19:00:49.734Z,10.10
2022-10-04T19:06:30.498Z,6.85
2022-10-04T19:12:13.375Z,9.90
2022-10-04T19:18:06.453Z,9.57
2022-10-04T19:23:41.243Z,9.93
2022-10-04T19:29:18.116Z,8.43
2022-10-04T19:35:16.473Z,5.53
2022-10-04T19:40:48.626Z,8.95
2022-10-04T19:46:32.110Z,5.45
2022-10-04T19:52:17.418Z,9.32
2022-10-04T19:57:40.217Z,9.35
2022-10-04T20:03:02.070Z,7.22
2022-10-04T20:08:48.830Z,10.23
2022-10-04T20:14:16.893Z,6.45
2022-10-04T20:19:41.544Z,8.95
2022-10-04T20:25:03.709Z,6.50
2022-10-04T20:30:25.548Z,8.85
2022-10-04T20:36:02.201Z,9.63
2022-10-04T20:41:30.135Z,7.05
2022-10-04T20:46:52.027Z,9.95
2022-10-04T20:52:17.009Z,7.18
2022-10-04T20:57:40.662Z,7.82
2022-10-04T21:03:10.217Z,6.03
2022-10-04T21:08:32.592Z,9.43
2022-10-04T21:13:59.707Z,4.68
2022-10-04T21:19:33.852Z,8.70
2022-10-04T21:24:57.036Z,6.63
2022-10-04T21:30:19.742Z,9.48
2022-10-04T21:35:41.468Z,9.88
2022-10-04T21:41:03.728Z,5.45
2022-10-04T21:46:25.504Z,4.65
2022-10-04T21:51:47.236Z,7.05
2022-10-04T21:57:08.940Z,9.43
2022-10-04T22:02:30.815Z,6.45
2022-10-04T22:07:52.671Z,6.40
2022-10-04T22:13:14.928Z,10.23
2022-10-04T22:18:36.694Z,7.15
2022-10-04T22:23:58.645Z,12.73
2022-10-04T22:29:20.657Z,9.50
2022-10-04T22:34:42.345Z,14.45
2022-10-04T22:40:04.653Z,11.77
2022-10-04T22:45:33.351Z,10.25
2022-10-04T22:50:55.177Z,9.77
2022-10-04T22:56:16.947Z,9.45
2022-10-04T23:01:39.290Z,5.80
2022-10-04T23:07:00.976Z,8.27
2022-10-04T23:12:22.719Z,5.40
2022-10-04T23:17:46.408Z,8.02
2022-10-04T23:23:21.009Z,6.97
2022-10-04T23:28:42.685Z,6.40
2022-10-04T23:34:15.660Z,5.80
2022-10-04T23:39:37.513Z,10.23
2022-10-04T23:45:01.322Z,7.78
2022-10-04T23:50:32.843Z,9.00
2022-10-04T23:55:56.324Z,5.18
